GON Airport (Groton-New London) Information

FAA: GON - ICAO: KGON

GON Airport Location

State Connecticut
County New London
City Groton (New London)
GON Airport is 3 miles southeast of Groton (New London), CT.
Latitude 41-19-48.2000N
Longitude 072-02-42.5000W
Elevation 9ft

KGON Airport METARs

METAR KGON 060756Z AUTO 12014KT 10SM BKN023 OVC029 11/07 A3016 RMK AO2 SLP211 T01060072
Altimeter 30.16"
Temperature 10.6°C (51.1°F)
Wind 120° at 14KT
Clouds broken at 2,300ft overcast at 2,900ft
Visibility 10.0mi
Time observed: 2021-12-06T07:56:00Z

GON Airport Details

Status Operational
Activation April 1940
Ownership Public
Usage Public
Chart NEW YORK
ATC on-site Yes
Beacon schedule sunset-sunrise
Beacon color clear green

GON Airport Contacts

Owner CONNECTICUT AIRPORT AUTHORITY
Owner address BRADLEY INTERNATIONAL AIRPORT, ADMIN OFFICES TERMINAL A 3RD FLOOR, WINDSOR LOCKS, CT 06096
Owner phone 860-292-2083
Manager JOHN L MCLEOD
Manager address 330 MARKET STREET, PHILADELPHIA, PA 19106
Manager phone 215-922-4820

GON Airport (Groton-New London) Radio Frequencies

GON (Airport) Radio Frequencies

UNICOM N/A
Common traffic advisory frequency (CTAF) 125.6